sensor_id;sensor_type;location;lat;lon;timestamp;pressure;altitude;pressure_sealevel;temperature;humidity
23281;BME280;11809;56.390;-3.266;2023-02-18T00:01:33;100909.28;;;16.78;50.86
23281;BME280;11809;56.390;-3.266;2023-02-18T00:04:00;100904.91;;;16.77;50.76
23281;BME280;11809;56.390;-3.266;2023-02-18T00:06:33;100910.44;;;16.74;50.81
23281;BME280;11809;56.390;-3.266;2023-02-18T00:09:01;100913.16;;;16.72;51.00
23281;BME280;11809;56.390;-3.266;2023-02-18T00:11:31;100902.84;;;16.68;50.99
23281;BME280;11809;56.390;-3.266;2023-02-18T00:14:00;100901.22;;;16.65;51.13
23281;BME280;11809;56.390;-3.266;2023-02-18T00:16:29;100882.72;;;16.64;51.14
23281;BME280;11809;56.390;-3.266;2023-02-18T00:18:59;100874.00;;;16.62;51.20
23281;BME280;11809;56.390;-3.266;2023-02-18T00:21:27;100871.38;;;16.62;51.32
23281;BME280;11809;56.390;-3.266;2023-02-18T00:23:55;100850.31;;;16.59;51.16
23281;BME280;11809;56.390;-3.266;2023-02-18T00:26:22;100847.84;;;16.56;51.25
23281;BME280;11809;56.390;-3.266;2023-02-18T00:28:50;100846.16;;;16.55;51.30
23281;BME280;11809;56.390;-3.266;2023-02-18T00:31:23;100841.94;;;16.51;51.53
23281;BME280;11809;56.390;-3.266;2023-02-18T00:33:51;100826.22;;;16.48;51.44
23281;BME280;11809;56.390;-3.266;2023-02-18T00:36:19;100818.25;;;16.48;51.44
23281;BME280;11809;56.390;-3.266;2023-02-18T00:38:51;100814.00;;;16.45;51.38
23281;BME280;11809;56.390;-3.266;2023-02-18T00:41:21;100805.28;;;16.43;51.68
23281;BME280;11809;56.390;-3.266;2023-02-18T00:43:48;100800.09;;;16.42;51.61
23281;BME280;11809;56.390;-3.266;2023-02-18T00:46:16;100788.69;;;16.39;51.54
23281;BME280;11809;56.390;-3.266;2023-02-18T00:48:44;100790.59;;;16.37;51.50
23281;BME280;11809;56.390;-3.266;2023-02-18T00:51:11;100783.59;;;16.36;52.05
23281;BME280;11809;56.390;-3.266;2023-02-18T00:53:38;100763.50;;;16.32;51.78
23281;BME280;11809;56.390;-3.266;2023-02-18T00:56:06;100760.00;;;16.32;51.92
23281;BME280;11809;56.390;-3.266;2023-02-18T00:58:35;100733.47;;;16.32;51.82
23281;BME280;11809;56.390;-3.266;2023-02-18T01:01:04;100744.19;;;16.30;51.83
23281;BME280;11809;56.390;-3.266;2023-02-18T01:03:33;100737.34;;;16.26;51.87
23281;BME280;11809;56.390;-3.266;2023-02-18T01:06:00;100741.72;;;16.27;51.86
23281;BME280;11809;56.390;-3.266;2023-02-18T01:08:27;100740.88;;;16.27;51.98
23281;BME280;11809;56.390;-3.266;2023-02-18T01:10:56;100746.28;;;16.25;51.98
23281;BME280;11809;56.390;-3.266;2023-02-18T01:13:24;100761.41;;;16.23;52.10
23281;BME280;11809;56.390;-3.266;2023-02-18T01:15:51;100758.75;;;16.23;52.33
23281;BME280;11809;56.390;-3.266;2023-02-18T01:18:19;100751.03;;;16.20;52.28
23281;BME280;11809;56.390;-3.266;2023-02-18T01:20:47;100728.94;;;16.20;52.13
23281;BME280;11809;56.390;-3.266;2023-02-18T01:23:15;100724.69;;;16.17;52.14
23281;BME280;11809;56.390;-3.266;2023-02-18T01:25:42;100723.84;;;16.17;52.21
23281;BME280;11809;56.390;-3.266;2023-02-18T01:28:10;100736.97;;;16.18;52.07
23281;BME280;11809;56.390;-3.266;2023-02-18T01:30:38;100725.72;;;16.15;52.39
23281;BME280;11809;56.390;-3.266;2023-02-18T01:33:06;100708.84;;;16.16;52.24
23281;BME280;11809;56.390;-3.266;2023-02-18T01:35:33;100683.38;;;16.13;52.17
23281;BME280;11809;56.390;-3.266;2023-02-18T01:38:00;100694.00;;;16.13;52.25
23281;BME280;11809;56.390;-3.266;2023-02-18T01:40:28;100681.78;;;16.11;52.29
23281;BME280;11809;56.390;-3.266;2023-02-18T01:42:56;100654.41;;;16.10;52.40
23281;BME280;11809;56.390;-3.266;2023-02-18T01:48:12;100642.13;;;16.09;52.17
23281;BME280;11809;56.390;-3.266;2023-02-18T01:50:48;100658.88;;;16.10;52.34
23281;BME280;11809;56.390;-3.266;2023-02-18T01:53:26;100650.94;;;16.10;52.59
23281;BME280;11809;56.390;-3.266;2023-02-18T01:55:54;100635.09;;;16.08;52.65
23281;BME280;11809;56.390;-3.266;2023-02-18T01:58:22;100627.25;;;16.07;52.74
23281;BME280;11809;56.390;-3.266;2023-02-18T02:00:49;100621.09;;;16.06;52.86
23281;BME280;11809;56.390;-3.266;2023-02-18T02:03:16;100614.94;;;16.06;52.66
23281;BME280;11809;56.390;-3.266;2023-02-18T02:05:43;100604.25;;;16.07;52.69
23281;BME280;11809;56.390;-3.266;2023-02-18T02:08:10;100584.75;;;16.08;52.86
23281;BME280;11809;56.390;-3.266;2023-02-18T02:14:29;100576.78;;;16.08;52.76
23281;BME280;11809;56.390;-3.266;2023-02-18T02:16:44;100569.81;;;16.07;52.54
23281;BME280;11809;56.390;-3.266;2023-02-18T02:20:04;100554.84;;;16.06;52.50
23281;BME280;11809;56.390;-3.266;2023-02-18T02:25:18;100541.66;;;16.05;52.63
23281;BME280;11809;56.390;-3.266;2023-02-18T02:28:19;100529.25;;;16.05;52.51
23281;BME280;11809;56.390;-3.266;2023-02-18T02:36:05;100511.66;;;16.04;52.73
23281;BME280;11809;56.390;-3.266;2023-02-18T02:38:51;100513.34;;;16.05;52.62
23281;BME280;11809;56.390;-3.266;2023-02-18T02:41:30;100511.56;;;16.06;52.86
23281;BME280;11809;56.390;-3.266;2023-02-18T02:46:46;100501.91;;;16.05;52.93
23281;BME280;11809;56.390;-3.266;2023-02-18T02:51:55;100502.56;;;16.08;53.04
23281;BME280;11809;56.390;-3.266;2023-02-18T02:54:26;100499.03;;;16.08;52.79
23281;BME280;11809;56.390;-3.266;2023-02-18T02:57:54;100484.00;;;16.08;52.99
23281;BME280;11809;56.390;-3.266;2023-02-18T02:59:59;100467.16;;;16.09;52.97
23281;BME280;11809;56.390;-3.266;2023-02-18T03:05:38;100460.13;;;16.08;53.14
23281;BME280;11809;56.390;-3.266;2023-02-18T03:11:06;100460.81;;;16.12;53.00
23281;BME280;11809;56.390;-3.266;2023-02-18T03:13:52;100464.38;;;16.11;52.80
23281;BME280;11809;56.390;-3.266;2023-02-18T03:16:35;100463.34;;;16.13;53.05
23281;BME280;11809;56.390;-3.266;2023-02-18T03:19:16;100458.88;;;16.14;53.10
23281;BME280;11809;56.390;-3.266;2023-02-18T03:21:58;100460.69;;;16.13;53.00
23281;BME280;11809;56.390;-3.266;2023-02-18T03:24:29;100457.28;;;16.11;53.23
23281;BME280;11809;56.390;-3.266;2023-02-18T03:27:05;100447.63;;;16.10;53.01
23281;BME280;11809;56.390;-3.266;2023-02-18T03:29:34;100441.28;;;16.13;53.23
23281;BME280;11809;56.390;-3.266;2023-02-18T03:32:05;100458.88;;;16.14;53.46
23281;BME280;11809;56.390;-3.266;2023-02-18T03:34:37;100466.72;;;16.15;53.22
23281;BME280;11809;56.390;-3.266;2023-02-18T03:37:07;100453.59;;;16.14;53.19
23281;BME280;11809;56.390;-3.266;2023-02-18T03:39:36;100435.16;;;16.12;53.38
23281;BME280;11809;56.390;-3.266;2023-02-18T03:42:06;100420.91;;;16.13;53.27
23281;BME280;11809;56.390;-3.266;2023-02-18T03:44:33;100429.59;;;16.15;53.28
23281;BME280;11809;56.390;-3.266;2023-02-18T03:47:00;100428.66;;;16.16;53.25
23281;BME280;11809;56.390;-3.266;2023-02-18T03:49:27;100433.22;;;16.14;53.20
23281;BME280;11809;56.390;-3.266;2023-02-18T03:51:54;100427.81;;;16.16;53.29
23281;BME280;11809;56.390;-3.266;2023-02-18T03:54:21;100420.72;;;16.16;53.15
23281;BME280;11809;56.390;-3.266;2023-02-18T03:56:48;100422.63;;;16.14;53.47
23281;BME280;11809;56.390;-3.266;2023-02-18T03:59:15;100419.00;;;16.15;53.26
23281;BME280;11809;56.390;-3.266;2023-02-18T04:01:41;100415.53;;;16.15;53.34
23281;BME280;11809;56.390;-3.266;2023-02-18T04:04:08;100420.06;;;16.13;53.31
23281;BME280;11809;56.390;-3.266;2023-02-18T04:06:35;100420.72;;;16.16;53.08
23281;BME280;11809;56.390;-3.266;2023-02-18T04:09:02;100412.03;;;16.14;53.19
23281;BME280;11809;56.390;-3.266;2023-02-18T04:11:38;100419.00;;;16.15;53.16
23281;BME280;11809;56.390;-3.266;2023-02-18T04:14:06;100419.13;;;16.14;53.32
23281;BME280;11809;56.390;-3.266;2023-02-18T04:16:33;100410.13;;;16.16;53.29
23281;BME280;11809;56.390;-3.266;2023-02-18T04:19:00;100408.41;;;16.15;53.38
23281;BME280;11809;56.390;-3.266;2023-02-18T04:21:27;100412.03;;;16.14;53.21
23281;BME280;11809;56.390;-3.266;2023-02-18T04:23:54;100430.59;;;16.14;53.30
23281;BME280;11809;56.390;-3.266;2023-02-18T04:26:21;100437.69;;;16.14;53.25
23281;BME280;11809;56.390;-3.266;2023-02-18T04:28:48;100427.94;;;16.14;53.61
23281;BME280;11809;56.390;-3.266;2023-02-18T04:31:15;100434.09;;;16.15;53.19
23281;BME280;11809;56.390;-3.266;2023-02-18T04:33:42;100431.44;;;16.15;53.20
23281;BME280;11809;56.390;-3.266;2023-02-18T04:36:09;100440.22;;;16.15;53.34
23281;BME280;11809;56.390;-3.266;2023-02-18T04:38:36;100429.59;;;16.15;53.19
23281;BME280;11809;56.390;-3.266;2023-02-18T04:41:03;100431.31;;;16.16;53.04
23281;BME280;11809;56.390;-3.266;2023-02-18T04:43:30;100434.09;;;16.15;53.10
23281;BME280;11809;56.390;-3.266;2023-02-18T04:45:57;100439.47;;;16.13;53.41
23281;BME280;11809;56.390;-3.266;2023-02-18T04:48:24;100448.16;;;16.15;53.26
23281;BME280;11809;56.390;-3.266;2023-02-18T04:50:50;100431.53;;;16.13;53.21
23281;BME280;11809;56.390;-3.266;2023-02-18T04:53:17;100431.53;;;16.13;53.27
23281;BME280;11809;56.390;-3.266;2023-02-18T04:55:49;100436.94;;;16.12;53.29
23281;BME280;11809;56.390;-3.266;2023-02-18T04:58:17;100451.88;;;16.13;53.39
23281;BME280;11809;56.390;-3.266;2023-02-18T05:00:44;100447.16;;;16.18;53.09
23281;BME280;11809;56.390;-3.266;2023-02-18T05:03:10;100443.63;;;16.17;53.14
23281;BME280;11809;56.390;-3.266;2023-02-18T05:05:37;100462.28;;;16.16;53.19
23281;BME280;11809;56.390;-3.266;2023-02-18T05:08:04;100483.50;;;16.16;53.25
23281;BME280;11809;56.390;-3.266;2023-02-18T05:10:31;100490.81;;;16.12;53.47
23281;BME280;11809;56.390;-3.266;2023-02-18T05:12:58;100480.75;;;16.17;53.31
23281;BME280;11809;56.390;-3.266;2023-02-18T05:15:25;100496.56;;;16.19;53.65
23281;BME280;11809;56.390;-3.266;2023-02-18T05:17:52;100492.41;;;16.15;53.29
23281;BME280;11809;56.390;-3.266;2023-02-18T05:20:19;100496.88;;;16.14;53.32
23281;BME280;11809;56.390;-3.266;2023-02-18T05:22:46;100489.75;;;16.15;53.42
23281;BME280;11809;56.390;-3.266;2023-02-18T05:25:13;100480.94;;;16.14;53.31
23281;BME280;11809;56.390;-3.266;2023-02-18T05:27:40;100489.44;;;16.19;53.43
23281;BME280;11809;56.390;-3.266;2023-02-18T05:30:07;100484.16;;;16.19;53.24
23281;BME280;11809;56.390;-3.266;2023-02-18T05:32:34;100493.16;;;16.17;53.33
23281;BME280;11809;56.390;-3.266;2023-02-18T05:35:01;100494.28;;;16.13;53.41
23281;BME280;11809;56.390;-3.266;2023-02-18T05:37:28;100497.72;;;16.15;53.50
23281;BME280;11809;56.390;-3.266;2023-02-18T05:39:54;100510.13;;;16.14;53.47
23281;BME280;11809;56.390;-3.266;2023-02-18T05:42:21;100514.44;;;16.15;53.21
23281;BME280;11809;56.390;-3.266;2023-02-18T05:44:48;100524.13;;;16.16;53.30
23281;BME280;11809;56.390;-3.266;2023-02-18T05:47:16;100519.00;;;16.13;53.33
23281;BME280;11809;56.390;-3.266;2023-02-18T05:49:43;100529.63;;;16.13;53.39
23281;BME280;11809;56.390;-3.266;2023-02-18T05:52:10;100528.88;;;16.11;53.48
23281;BME280;11809;56.390;-3.266;2023-02-18T05:54:38;100545.53;;;16.13;53.36
23281;BME280;11809;56.390;-3.266;2023-02-18T05:57:05;100545.53;;;16.13;53.26
23281;BME280;11809;56.390;-3.266;2023-02-18T05:59:32;100568.34;;;16.16;53.23
23281;BME280;11809;56.390;-3.266;2023-02-18T06:01:59;100567.22;;;16.20;53.09
23281;BME280;11809;56.390;-3.266;2023-02-18T06:04:27;100562.94;;;16.17;53.34
23281;BME280;11809;56.390;-3.266;2023-02-18T06:06:53;100577.06;;;16.18;53.14
23281;BME280;11809;56.390;-3.266;2023-02-18T06:09:20;100581.50;;;16.17;53.05
23281;BME280;11809;56.390;-3.266;2023-02-18T06:11:47;100596.56;;;16.17;52.93
23281;BME280;11809;56.390;-3.266;2023-02-18T06:14:14;100594.00;;;16.15;52.92
23281;BME280;11809;56.390;-3.266;2023-02-18T06:16:41;100601.94;;;16.15;53.14
23281;BME280;11809;56.390;-3.266;2023-02-18T06:19:08;100612.53;;;16.15;53.06
23281;BME280;11809;56.390;-3.266;2023-02-18T06:21:35;100616.25;;;16.13;53.17
23281;BME280;11809;56.390;-3.266;2023-02-18T06:24:02;100617.97;;;16.14;53.20
23281;BME280;11809;56.390;-3.266;2023-02-18T06:26:29;100605.00;;;16.09;53.00
23281;BME280;11809;56.390;-3.266;2023-02-18T06:28:56;100624.31;;;16.11;53.20
23281;BME280;11809;56.390;-3.266;2023-02-18T06:31:23;100623.56;;;16.09;53.14
23281;BME280;11809;56.390;-3.266;2023-02-18T06:33:50;100625.34;;;16.09;53.12
23281;BME280;11809;56.390;-3.266;2023-02-18T06:36:17;100623.75;;;16.06;53.20
23281;BME280;11809;56.390;-3.266;2023-02-18T06:38:45;100629.06;;;16.06;53.24
23281;BME280;11809;56.390;-3.266;2023-02-18T06:41:12;100637.00;;;16.06;53.42
23281;BME280;11809;56.390;-3.266;2023-02-18T06:43:40;100637.19;;;16.03;53.45
23281;BME280;11809;56.390;-3.266;2023-02-18T06:46:07;100646.88;;;16.04;53.27
23281;BME280;11809;56.390;-3.266;2023-02-18T06:48:35;100649.50;;;16.04;53.23
23281;BME280;11809;56.390;-3.266;2023-02-18T06:51:01;100651.31;;;16.04;53.20
23281;BME280;11809;56.390;-3.266;2023-02-18T06:53:29;100674.13;;;16.06;53.21
23281;BME280;11809;56.390;-3.266;2023-02-18T06:55:56;100678.69;;;16.04;53.14
23281;BME280;11809;56.390;-3.266;2023-02-18T06:58:23;100674.31;;;16.03;53.13
23281;BME280;11809;56.390;-3.266;2023-02-18T07:00:51;100683.38;;;16.13;52.99
23281;BME280;11809;56.390;-3.266;2023-02-18T07:03:18;100686.63;;;16.04;52.79
23281;BME280;11809;56.390;-3.266;2023-02-18T07:05:45;100699.50;;;15.96;53.21
23281;BME280;11809;56.390;-3.266;2023-02-18T07:08:12;100699.69;;;16.07;53.07
23281;BME280;11809;56.390;-3.266;2023-02-18T07:10:39;100695.72;;;16.14;52.91
23281;BME280;11809;56.390;-3.266;2023-02-18T07:13:06;100711.88;;;16.24;52.76
23281;BME280;11809;56.390;-3.266;2023-02-18T07:15:33;100710.75;;;16.28;52.68
23281;BME280;11809;56.390;-3.266;2023-02-18T07:18:00;100716.81;;;16.30;52.42
23281;BME280;11809;56.390;-3.266;2023-02-18T07:20:27;100715.66;;;16.34;52.39
23281;BME280;11809;56.390;-3.266;2023-02-18T07:22:54;100719.94;;;16.36;52.07
23281;BME280;11809;56.390;-3.266;2023-02-18T07:25:21;100723.34;;;16.38;51.87
23281;BME280;11809;56.390;-3.266;2023-02-18T07:27:49;100731.19;;;16.40;51.99
23281;BME280;11809;56.390;-3.266;2023-02-18T07:30:18;100731.50;;;16.35;51.68
23281;BME280;11809;56.390;-3.266;2023-02-18T07:32:45;100748.16;;;16.37;52.05
23281;BME280;11809;56.390;-3.266;2023-02-18T07:35:14;100754.44;;;16.36;51.82
23281;BME280;11809;56.390;-3.266;2023-02-18T07:37:46;100762.38;;;16.36;51.67
23281;BME280;11809;56.390;-3.266;2023-02-18T07:40:15;100762.56;;;16.33;51.79
23281;BME280;11809;56.390;-3.266;2023-02-18T07:42:42;100768.69;;;16.34;52.31
23281;BME280;11809;56.390;-3.266;2023-02-18T07:45:10;100770.59;;;16.32;53.40
23281;BME280;11809;56.390;-3.266;2023-02-18T07:47:37;100773.25;;;16.32;53.56
23281;BME280;11809;56.390;-3.266;2023-02-18T07:50:05;100776.78;;;16.32;53.21
23281;BME280;11809;56.390;-3.266;2023-02-18T07:52:32;100783.88;;;16.32;53.63
23281;BME280;11809;56.390;-3.266;2023-02-18T07:54:59;100791.34;;;16.39;53.29
23281;BME280;11809;56.390;-3.266;2023-02-18T07:57:26;100791.09;;;16.44;53.62
23281;BME280;11809;56.390;-3.266;2023-02-18T07:59:53;100789.94;;;16.48;54.67
23281;BME280;11809;56.390;-3.266;2023-02-18T08:02:21;100802.56;;;16.59;53.53
23281;BME280;11809;56.390;-3.266;2023-02-18T08:04:49;100811.38;;;16.59;53.42
23281;BME280;11809;56.390;-3.266;2023-02-18T08:07:17;100828.16;;;16.60;53.19
23281;BME280;11809;56.390;-3.266;2023-02-18T08:09:46;100815.81;;;16.59;53.30
23281;BME280;11809;56.390;-3.266;2023-02-18T08:12:14;100832.22;;;16.65;53.25
23281;BME280;11809;56.390;-3.266;2023-02-18T08:14:41;100833.09;;;16.66;53.13
23281;BME280;11809;56.390;-3.266;2023-02-18T08:17:08;100838.19;;;16.69;53.36
23281;BME280;11809;56.390;-3.266;2023-02-18T08:19:35;100834.16;;;16.48;49.97
23281;BME280;11809;56.390;-3.266;2023-02-18T08:22:02;100850.88;;;16.50;51.82
23281;BME280;11809;56.390;-3.266;2023-02-18T08:24:29;100862.47;;;16.63;52.27
23281;BME280;11809;56.390;-3.266;2023-02-18T08:26:56;100860.38;;;16.68;52.35
23281;BME280;11809;56.390;-3.266;2023-02-18T08:29:27;100855.63;;;16.73;52.53
23281;BME280;11809;56.390;-3.266;2023-02-18T08:31:54;100861.63;;;16.76;52.49
23281;BME280;11809;56.390;-3.266;2023-02-18T08:34:22;100869.47;;;16.78;53.05
23281;BME280;11809;56.390;-3.266;2023-02-18T08:36:49;100866.53;;;16.82;53.25
23281;BME280;11809;56.390;-3.266;2023-02-18T08:39:16;100874.59;;;16.81;53.79
23281;BME280;11809;56.390;-3.266;2023-02-18T08:41:43;100876.94;;;16.85;53.38
23281;BME280;11809;56.390;-3.266;2023-02-18T08:44:10;100893.56;;;16.89;53.32
23281;BME280;11809;56.390;-3.266;2023-02-18T08:46:37;100898.88;;;16.89;53.14
23281;BME280;11809;56.390;-3.266;2023-02-18T08:49:05;100896.97;;;16.91;53.39
23281;BME280;11809;56.390;-3.266;2023-02-18T08:51:32;100901.34;;;16.92;53.49
23281;BME280;11809;56.390;-3.266;2023-02-18T08:54:00;100909.09;;;16.95;53.34
23281;BME280;11809;56.390;-3.266;2023-02-18T08:56:27;100915.16;;;16.97;53.12
23281;BME280;11809;56.390;-3.266;2023-02-18T08:58:54;100916.84;;;16.98;53.07
23281;BME280;11809;56.390;-3.266;2023-02-18T09:01:24;100922.94;;;17.00;52.84
23281;BME280;11809;56.390;-3.266;2023-02-18T09:03:51;100943.03;;;17.04;52.94
23281;BME280;11809;56.390;-3.266;2023-02-18T09:06:18;100928.81;;;17.05;52.87
23281;BME280;11809;56.390;-3.266;2023-02-18T09:08:45;100936.38;;;17.11;52.73
23281;BME280;11809;56.390;-3.266;2023-02-18T09:11:12;100942.56;;;17.12;52.79
23281;BME280;11809;56.390;-3.266;2023-02-18T09:13:39;100947.00;;;17.11;52.83
23281;BME280;11809;56.390;-3.266;2023-02-18T09:16:12;100953.00;;;17.15;52.55
23281;BME280;11809;56.390;-3.266;2023-02-18T09:18:40;100965.34;;;17.16;52.73
23281;BME280;11809;56.390;-3.266;2023-02-18T09:21:08;100972.31;;;17.17;52.51
23281;BME280;11809;56.390;-3.266;2023-02-18T09:23:36;100964.09;;;17.21;52.41
23281;BME280;11809;56.390;-3.266;2023-02-18T09:26:08;100971.28;;;17.19;52.56
23281;BME280;11809;56.390;-3.266;2023-02-18T09:28:35;100979.25;;;17.19;52.32
23281;BME280;11809;56.390;-3.266;2023-02-18T09:31:07;100975.09;;;17.15;52.46
23281;BME280;11809;56.390;-3.266;2023-02-18T09:33:37;100982.69;;;17.21;52.89
23281;BME280;11809;56.390;-3.266;2023-02-18T09:36:05;100981.72;;;17.22;52.60
23281;BME280;11809;56.390;-3.266;2023-02-18T09:38:33;100984.94;;;17.27;52.86
23281;BME280;11809;56.390;-3.266;2023-02-18T09:41:02;100982.88;;;17.32;52.49
23281;BME280;11809;56.390;-3.266;2023-02-18T09:43:38;101003.16;;;17.33;52.16
23281;BME280;11809;56.390;-3.266;2023-02-18T09:46:24;101008.09;;;17.39;52.37
23281;BME280;11809;56.390;-3.266;2023-02-18T09:48:52;101007.91;;;17.42;52.53
23281;BME280;11809;56.390;-3.266;2023-02-18T09:51:20;101013.13;;;17.44;52.56
23281;BME280;11809;56.390;-3.266;2023-02-18T09:53:46;101006.75;;;17.46;52.44
23281;BME280;11809;56.390;-3.266;2023-02-18T09:56:19;101003.06;;;17.49;52.47
23281;BME280;11809;56.390;-3.266;2023-02-18T09:58:48;101008.97;;;17.54;52.50
23281;BME280;11809;56.390;-3.266;2023-02-18T10:01:24;101016.84;;;17.55;52.45
23281;BME280;11809;56.390;-3.266;2023-02-18T10:03:57;101016.75;;;17.57;52.31
23281;BME280;11809;56.390;-3.266;2023-02-18T10:06:30;101022.81;;;17.59;52.29
23281;BME280;11809;56.390;-3.266;2023-02-18T10:09:02;101024.63;;;17.59;52.24
23281;BME280;11809;56.390;-3.266;2023-02-18T10:11:35;101025.38;;;17.61;52.20
23281;BME280;11809;56.390;-3.266;2023-02-18T10:14:08;101028.78;;;17.63;51.54
23281;BME280;11809;56.390;-3.266;2023-02-18T10:16:36;101027.09;;;17.62;51.43
23281;BME280;11809;56.390;-3.266;2023-02-18T10:19:27;101029.66;;;17.63;51.71
23281;BME280;11809;56.390;-3.266;2023-02-18T10:21:56;101035.63;;;17.67;51.76
23281;BME280;11809;56.390;-3.266;2023-02-18T10:26:54;101045.50;;;17.65;51.75
23281;BME280;11809;56.390;-3.266;2023-02-18T10:29:22;101037.31;;;17.68;51.83
23281;BME280;11809;56.390;-3.266;2023-02-18T10:31:56;101037.53;;;17.65;51.67
23281;BME280;11809;56.390;-3.266;2023-02-18T10:45:27;101036.75;;;17.77;51.92
23281;BME280;11809;56.390;-3.266;2023-02-18T10:48:34;101047.84;;;17.83;51.62
23281;BME280;11809;56.390;-3.266;2023-02-18T10:51:18;101040.91;;;17.81;51.55
23281;BME280;11809;56.390;-3.266;2023-02-18T10:53:47;101049.66;;;17.83;51.01
23281;BME280;11809;56.390;-3.266;2023-02-18T10:56:46;101050.59;;;17.82;51.05
23281;BME280;11809;56.390;-3.266;2023-02-18T10:59:23;101055.63;;;17.86;50.97
23281;BME280;11809;56.390;-3.266;2023-02-18T11:02:13;101053.47;;;17.79;50.74
23281;BME280;11809;56.390;-3.266;2023-02-18T11:04:43;101049.84;;;17.51;49.34
23281;BME280;11809;56.390;-3.266;2023-02-18T11:07:22;101055.97;;;17.53;49.86
23281;BME280;11809;56.390;-3.266;2023-02-18T11:09:56;101059.38;;;17.55;50.29
23281;BME280;11809;56.390;-3.266;2023-02-18T11:15:36;101062.19;;;17.52;50.70
23281;BME280;11809;56.390;-3.266;2023-02-18T11:18:13;101050.13;;;17.47;50.96
23281;BME280;11809;56.390;-3.266;2023-02-18T11:20:40;101059.91;;;17.46;50.98
23281;BME280;11809;56.390;-3.266;2023-02-18T11:23:17;101060.09;;;17.43;50.97
23281;BME280;11809;56.390;-3.266;2023-02-18T11:26:05;101061.06;;;17.42;51.14
23281;BME280;11809;56.390;-3.266;2023-02-18T11:28:43;101055.94;;;17.39;51.24
23281;BME280;11809;56.390;-3.266;2023-02-18T11:31:44;101051.56;;;17.38;51.19
23281;BME280;11809;56.390;-3.266;2023-02-18T11:34:21;101053.47;;;17.36;51.19
23281;BME280;11809;56.390;-3.266;2023-02-18T11:36:49;101064.19;;;17.35;51.06
23281;BME280;11809;56.390;-3.266;2023-02-18T11:49:43;101072.03;;;17.22;50.87
23281;BME280;11809;56.390;-3.266;2023-02-18T11:52:25;101067.56;;;17.23;50.97
23281;BME280;11809;56.390;-3.266;2023-02-18T11:55:14;101077.53;;;17.19;51.02
23281;BME280;11809;56.390;-3.266;2023-02-18T11:57:45;101075.84;;;17.18;51.42
23281;BME280;11809;56.390;-3.266;2023-02-18T12:02:52;101077.91;;;17.13;51.31
23281;BME280;11809;56.390;-3.266;2023-02-18T12:05:24;101077.91;;;17.13;51.53
23281;BME280;11809;56.390;-3.266;2023-02-18T12:10:31;101070.72;;;17.15;51.20
23281;BME280;11809;56.390;-3.266;2023-02-18T12:13:36;101072.28;;;17.04;50.48
23281;BME280;11809;56.390;-3.266;2023-02-18T12:24:12;101068.97;;;17.14;50.76
23281;BME280;11809;56.390;-3.266;2023-02-18T12:29:44;101063.81;;;17.27;50.91
23281;BME280;11809;56.390;-3.266;2023-02-18T12:46:06;101056.66;;;17.27;51.44
23281;BME280;11809;56.390;-3.266;2023-02-18T12:48:49;101071.47;;;17.31;51.59
23281;BME280;11809;56.390;-3.266;2023-02-18T12:57:29;101072.56;;;16.99;48.84
23281;BME280;11809;56.390;-3.266;2023-02-18T13:08:32;101083.41;;;17.10;51.44
23281;BME280;11809;56.390;-3.266;2023-02-18T13:16:45;101068.97;;;17.14;51.49
23281;BME280;11809;56.390;-3.266;2023-02-18T13:19:30;101062.00;;;17.13;51.41
23281;BME280;11809;56.390;-3.266;2023-02-18T13:22:02;101065.56;;;17.12;51.64
23281;BME280;11809;56.390;-3.266;2023-02-18T13:24:35;101049.81;;;17.09;51.70
23281;BME280;11809;56.390;-3.266;2023-02-18T13:33:04;101039.09;;;16.96;52.68
23281;BME280;11809;56.390;-3.266;2023-02-18T13:38:47;101039.97;;;16.97;52.90
23281;BME280;11809;56.390;-3.266;2023-02-18T13:40:55;101045.44;;;16.94;53.33
23281;BME280;11809;56.390;-3.266;2023-02-18T13:56:43;101044.59;;;16.93;52.39
23281;BME280;11809;56.390;-3.266;2023-02-18T13:59:28;101042.03;;;16.92;52.59
23281;BME280;11809;56.390;-3.266;2023-02-18T14:04:52;101038.53;;;16.91;51.95
23281;BME280;11809;56.390;-3.266;2023-02-18T14:07:36;101037.25;;;16.83;51.76
23281;BME280;11809;56.390;-3.266;2023-02-18T14:13:01;101047.53;;;16.89;51.80
23281;BME280;11809;56.390;-3.266;2023-02-18T14:23:41;101043.19;;;17.02;51.93
23281;BME280;11809;56.390;-3.266;2023-02-18T14:34:04;101035.03;;;17.19;51.69
23281;BME280;11809;56.390;-3.266;2023-02-18T14:36:48;101028.59;;;17.23;51.43
23281;BME280;11809;56.390;-3.266;2023-02-18T14:39:38;101029.06;;;17.30;51.44
23281;BME280;11809;56.390;-3.266;2023-02-18T14:50:37;101035.63;;;17.52;50.80
23281;BME280;11809;56.390;-3.266;2023-02-18T14:53:07;101036.22;;;17.58;50.67
23281;BME280;11809;56.390;-3.266;2023-02-18T14:55:43;101035.63;;;17.67;50.80
23281;BME280;11809;56.390;-3.266;2023-02-18T14:58:25;101032.78;;;17.70;50.43
23281;BME280;11809;56.390;-3.266;2023-02-18T15:00:53;101029.34;;;17.82;50.29
23281;BME280;11809;56.390;-3.266;2023-02-18T15:03:21;101034.47;;;17.85;50.10
23281;BME280;11809;56.390;-3.266;2023-02-18T15:05:50;101026.38;;;17.86;50.19
23281;BME280;11809;56.390;-3.266;2023-02-18T15:08:24;101030.00;;;17.85;49.93
23281;BME280;11809;56.390;-3.266;2023-02-18T15:11:27;101028.25;;;17.98;50.09
23281;BME280;11809;56.390;-3.266;2023-02-18T15:13:45;101030.81;;;18.00;50.18
23281;BME280;11809;56.390;-3.266;2023-02-18T15:16:30;101032.41;;;18.02;50.28
23281;BME280;11809;56.390;-3.266;2023-02-18T15:19:13;101027.75;;;18.06;50.19
23281;BME280;11809;56.390;-3.266;2023-02-18T15:21:46;101022.25;;;18.09;49.87
23281;BME280;11809;56.390;-3.266;2023-02-18T15:24:23;101014.06;;;18.12;49.97
23281;BME280;11809;56.390;-3.266;2023-02-18T15:26:53;101012.91;;;18.16;49.88
23281;BME280;11809;56.390;-3.266;2023-02-18T15:29:27;101009.94;;;18.21;49.72
23281;BME280;11809;56.390;-3.266;2023-02-18T15:31:56;101010.59;;;18.24;49.74
23281;BME280;11809;56.390;-3.266;2023-02-18T15:34:32;101011.25;;;18.28;49.76